Terminal Aerodrome Forecast
Issued by NWS

Home | Current Version | Previous Version | Text Only | Print | Product List | Glossary On
Versions: 1 2 3 4 5 6 7 8 9 10 11 12 13 14 15 16 17
000
FTUS45 KTFX 172029 AAA
TAFCTB
TAF AMD
KCTB 172029Z 1720/1818 27025G35KT P6SM FEW035 FEW200
      TEMPO 1721/1801 BKN035=

USA.gov is the U.S. government's official web portal to all federal, state and local government web resources and services.